Pakpattan Weather



Pakpattan's Current Weather

Temprature 29.25o clear sky

clear sky

Rain: 0 %

Min Temprature29.25o
Max Temprature29.25o
Humidity45
Wind Speed2 m/h
Sun Rise05:37:51
Sun Set18:41:01
Current Time: 23-Aug-2019 05:57:32
Lat/Lon: 30.34, 73.39




Pakpattan's Geo Location



Pakpattan's Weather Forecast

Time Overall Temp Min Temp Max Temp Humidity Wind Speed Rain
23-Aug-2019 (Fri)
08:00:00 clear sky 34.970 34.967 34.970 27 1.52 m/h 0 %
11:00:00 clear sky 40.150 40.150 40.150 20 2.9 m/h 0 %
14:00:00 few clouds 43.030 43.030 43.031 15 2.44 m/h 0 %
17:00:00 few clouds 42.110 42.110 42.111 14 1.1 m/h 0 %
20:00:00 few clouds 35.350 35.350 35.350 26 1.18 m/h 0 %
23:00:00 clear sky 33.742 33.742 33.742 29 1.41 m/h 0 %
24-Aug-2019 (Sat)
02:00:00 clear sky 32.131 32.131 32.131 32 2.09 m/h 0 %
05:00:00 clear sky 30.755 30.755 30.755 35 2.24 m/h 0 %
08:00:00 clear sky 35.007 35.007 35.007 28 5.19 m/h 0 %
11:00:00 clear sky 41.669 41.669 41.669 20 5.38 m/h 0 %
14:00:00 clear sky 44.169 44.169 44.169 15 4.77 m/h 0 %
17:00:00 scattered clouds 41.323 41.323 41.323 18 4.13 m/h 0 %
20:00:00 scattered clouds 36.250 36.250 36.250 25 4.52 m/h 0 %
23:00:00 few clouds 34.669 34.669 34.669 26 4.38 m/h 0 %
25-Aug-2019 (Sun)
02:00:00 clear sky 32.331 32.331 32.331 30 1.51 m/h 0 %
05:00:00 clear sky 30.357 30.357 30.357 35 2.34 m/h 0 %
08:00:00 clear sky 34.914 34.914 34.914 26 4.85 m/h 0 %
11:00:00 clear sky 42.016 42.016 42.016 19 5.26 m/h 0 %
14:00:00 clear sky 44.450 44.450 44.450 14 3.28 m/h 0 %
17:00:00 scattered clouds 43.350 43.350 43.350 14 2.92 m/h 0 %
20:00:00 broken clouds 37.881 37.881 37.881 23 4.6 m/h 0 %
23:00:00 broken clouds 35.811 35.811 35.811 27 2.3 m/h 0 %
26-Aug-2019 (Mon)
02:00:00 scattered clouds 32.065 32.065 32.065 44 3.7 m/h 0 %
05:00:00 scattered clouds 30.350 30.350 30.350 59 3.39 m/h 0 %
08:00:00 broken clouds 35.567 35.567 35.567 35 3.67 m/h 0 %
11:00:00 broken clouds 41.172 41.172 41.172 21 3.25 m/h 0 %
14:00:00 broken clouds 44.684 44.684 44.684 15 2.63 m/h 0 %
17:00:00 overcast clouds 41.220 41.220 41.220 19 3.38 m/h 0 %
20:00:00 few clouds 36.172 36.172 36.172 28 3.53 m/h 0 %
23:00:00 clear sky 33.514 33.514 33.514 44 3.12 m/h 0 %
27-Aug-2019 (Tue)
02:00:00 broken clouds 32.416 32.416 32.416 48 3.87 m/h 0 %
05:00:00 overcast clouds 31.050 31.050 31.050 54 2.82 m/h 0 %
08:00:00 overcast clouds 35.235 35.235 35.235 43 4.59 m/h 0 %
11:00:00 scattered clouds 40.336 40.336 40.336 28 3.55 m/h 0 %
14:00:00 overcast clouds 40.236 40.236 40.236 27 2.5 m/h 0 %
17:00:00 overcast clouds 39.965 39.965 39.965 28 4.14 m/h 0 %
20:00:00 scattered clouds 35.450 35.450 35.450 36 2.2 m/h 0 %
23:00:00 few clouds 33.350 33.350 33.350 45 3.11 m/h 0 %
28-Aug-2019 (Wed)
02:00:00 clear sky 32.057 32.057 32.057 51 2.99 m/h 0 %
05:00:00 few clouds 31.372 31.372 31.372 58 2.32 m/h 0 %

Famous Cities (61)